sensor_id;sensor_type;location;lat;lon;timestamp;temperature;humidity
43099;DHT22;28715;51.988;6.020;2022-10-01T00:00:19;13.40;98.90
43099;DHT22;28715;51.988;6.020;2022-10-01T00:02:45;13.40;98.80
43099;DHT22;28715;51.988;6.020;2022-10-01T00:05:11;13.30;99.00
43099;DHT22;28715;51.988;6.020;2022-10-01T00:07:43;13.30;99.20
43099;DHT22;28715;51.988;6.020;2022-10-01T00:10:09;13.30;99.40
43099;DHT22;28715;51.988;6.020;2022-10-01T00:12:36;13.20;99.20
43099;DHT22;28715;51.988;6.020;2022-10-01T00:15:03;13.20;99.60
43099;DHT22;28715;51.988;6.020;2022-10-01T00:17:32;13.10;99.60
43099;DHT22;28715;51.988;6.020;2022-10-01T00:19:58;13.10;99.80
43099;DHT22;28715;51.988;6.020;2022-10-01T00:22:23;13.10;99.90
43099;DHT22;28715;51.988;6.020;2022-10-01T00:24:49;13.10;99.90
43099;DHT22;28715;51.988;6.020;2022-10-01T00:27:15;13.00;99.90
43099;DHT22;28715;51.988;6.020;2022-10-01T00:29:40;13.00;99.90
43099;DHT22;28715;51.988;6.020;2022-10-01T00:32:09;13.00;99.90
43099;DHT22;28715;51.988;6.020;2022-10-01T00:34:34;13.00;99.90
43099;DHT22;28715;51.988;6.020;2022-10-01T00:37:00;13.00;99.90
43099;DHT22;28715;51.988;6.020;2022-10-01T00:39:25;13.00;99.90
43099;DHT22;28715;51.988;6.020;2022-10-01T00:41:51;12.90;99.90
43099;DHT22;28715;51.988;6.020;2022-10-01T00:46:55;13.00;99.90
43099;DHT22;28715;51.988;6.020;2022-10-01T00:49:26;12.90;99.90
43099;DHT22;28715;51.988;6.020;2022-10-01T00:52:01;12.90;99.90
43099;DHT22;28715;51.988;6.020;2022-10-01T00:54:36;12.90;99.90
43099;DHT22;28715;51.988;6.020;2022-10-01T00:57:03;12.90;99.90
43099;DHT22;28715;51.988;6.020;2022-10-01T00:59:31;12.90;99.90
43099;DHT22;28715;51.988;6.020;2022-10-01T01:01:58;12.90;99.90
43099;DHT22;28715;51.988;6.020;2022-10-01T01:04:24;12.90;99.90
43099;DHT22;28715;51.988;6.020;2022-10-01T01:06:53;12.90;99.90
43099;DHT22;28715;51.988;6.020;2022-10-01T01:09:29;12.90;99.90
43099;DHT22;28715;51.988;6.020;2022-10-01T01:17:22;12.90;99.90
43099;DHT22;28715;51.988;6.020;2022-10-01T01:20:13;12.80;99.90
43099;DHT22;28715;51.988;6.020;2022-10-01T01:22:38;12.80;99.90
43099;DHT22;28715;51.988;6.020;2022-10-01T01:25:29;12.80;99.90
43099;DHT22;28715;51.988;6.020;2022-10-01T01:28:10;12.80;99.90
43099;DHT22;28715;51.988;6.020;2022-10-01T01:30:41;12.80;99.90
43099;DHT22;28715;51.988;6.020;2022-10-01T01:33:17;12.80;99.90
43099;DHT22;28715;51.988;6.020;2022-10-01T01:36:00;12.80;99.90
43099;DHT22;28715;51.988;6.020;2022-10-01T01:38:33;12.70;99.90
43099;DHT22;28715;51.988;6.020;2022-10-01T01:41:02;12.70;99.90
43099;DHT22;28715;51.988;6.020;2022-10-01T01:43:35;12.70;99.90
43099;DHT22;28715;51.988;6.020;2022-10-01T01:46:05;12.60;99.90
43099;DHT22;28715;51.988;6.020;2022-10-01T01:48:32;12.60;99.90
43099;DHT22;28715;51.988;6.020;2022-10-01T01:51:10;12.60;99.90
43099;DHT22;28715;51.988;6.020;2022-10-01T01:53:36;12.60;99.90
43099;DHT22;28715;51.988;6.020;2022-10-01T01:56:04;12.70;99.90
43099;DHT22;28715;51.988;6.020;2022-10-01T01:58:32;12.70;99.90
43099;DHT22;28715;51.988;6.020;2022-10-01T02:00:58;12.70;99.90
43099;DHT22;28715;51.988;6.020;2022-10-01T02:03:25;12.70;99.90
43099;DHT22;28715;51.988;6.020;2022-10-01T02:06:18;12.80;99.90
43099;DHT22;28715;51.988;6.020;2022-10-01T02:09:14;12.80;99.90
43099;DHT22;28715;51.988;6.020;2022-10-01T02:12:05;12.70;99.90
43099;DHT22;28715;51.988;6.020;2022-10-01T02:14:53;12.70;99.90
43099;DHT22;28715;51.988;6.020;2022-10-01T02:20:18;12.70;99.90
43099;DHT22;28715;51.988;6.020;2022-10-01T02:22:50;12.70;99.90
43099;DHT22;28715;51.988;6.020;2022-10-01T02:25:17;12.70;99.90
43099;DHT22;28715;51.988;6.020;2022-10-01T02:27:50;12.60;99.90
43099;DHT22;28715;51.988;6.020;2022-10-01T02:30:17;12.60;99.90
43099;DHT22;28715;51.988;6.020;2022-10-01T02:32:45;12.60;99.90
43099;DHT22;28715;51.988;6.020;2022-10-01T02:35:14;12.60;99.90
43099;DHT22;28715;51.988;6.020;2022-10-01T02:37:41;12.60;99.90
43099;DHT22;28715;51.988;6.020;2022-10-01T02:40:11;12.60;99.90
43099;DHT22;28715;51.988;6.020;2022-10-01T02:42:42;12.60;99.90
43099;DHT22;28715;51.988;6.020;2022-10-01T02:45:12;12.60;99.90
43099;DHT22;28715;51.988;6.020;2022-10-01T02:47:41;12.60;99.90
43099;DHT22;28715;51.988;6.020;2022-10-01T02:50:10;12.60;99.90
43099;DHT22;28715;51.988;6.020;2022-10-01T02:53:03;12.70;99.90
43099;DHT22;28715;51.988;6.020;2022-10-01T02:55:33;12.70;99.90
43099;DHT22;28715;51.988;6.020;2022-10-01T02:58:00;12.70;99.90
43099;DHT22;28715;51.988;6.020;2022-10-01T03:00:26;12.70;99.90
43099;DHT22;28715;51.988;6.020;2022-10-01T03:02:51;12.70;99.90
43099;DHT22;28715;51.988;6.020;2022-10-01T03:05:18;12.70;99.90
43099;DHT22;28715;51.988;6.020;2022-10-01T03:07:45;12.70;99.90
43099;DHT22;28715;51.988;6.020;2022-10-01T03:10:12;12.70;99.90
43099;DHT22;28715;51.988;6.020;2022-10-01T03:12:40;12.70;99.90
43099;DHT22;28715;51.988;6.020;2022-10-01T03:15:08;12.70;99.90
43099;DHT22;28715;51.988;6.020;2022-10-01T03:17:34;12.70;99.90
43099;DHT22;28715;51.988;6.020;2022-10-01T03:20:01;12.60;99.90
43099;DHT22;28715;51.988;6.020;2022-10-01T03:22:27;12.60;99.90
43099;DHT22;28715;51.988;6.020;2022-10-01T03:24:53;12.60;99.90
43099;DHT22;28715;51.988;6.020;2022-10-01T03:27:20;12.60;99.90
43099;DHT22;28715;51.988;6.020;2022-10-01T03:29:45;12.60;99.90
43099;DHT22;28715;51.988;6.020;2022-10-01T03:32:11;12.60;99.90
43099;DHT22;28715;51.988;6.020;2022-10-01T03:34:37;12.50;99.90
43099;DHT22;28715;51.988;6.020;2022-10-01T03:37:03;12.50;99.90
43099;DHT22;28715;51.988;6.020;2022-10-01T03:39:29;12.50;99.90
43099;DHT22;28715;51.988;6.020;2022-10-01T03:41:54;12.50;99.90
43099;DHT22;28715;51.988;6.020;2022-10-01T03:44:20;12.60;99.90
43099;DHT22;28715;51.988;6.020;2022-10-01T03:46:46;12.60;99.90
43099;DHT22;28715;51.988;6.020;2022-10-01T03:49:12;12.70;99.90
43099;DHT22;28715;51.988;6.020;2022-10-01T03:51:37;12.70;99.90
43099;DHT22;28715;51.988;6.020;2022-10-01T03:54:04;12.70;99.90
43099;DHT22;28715;51.988;6.020;2022-10-01T03:56:31;12.70;99.90
43099;DHT22;28715;51.988;6.020;2022-10-01T03:58:56;12.70;99.90
43099;DHT22;28715;51.988;6.020;2022-10-01T04:01:22;12.70;99.90
43099;DHT22;28715;51.988;6.020;2022-10-01T04:03:47;12.80;99.90
43099;DHT22;28715;51.988;6.020;2022-10-01T04:06:15;12.80;99.90
43099;DHT22;28715;51.988;6.020;2022-10-01T04:08:41;12.90;99.90
43099;DHT22;28715;51.988;6.020;2022-10-01T04:11:06;12.90;99.90
43099;DHT22;28715;51.988;6.020;2022-10-01T04:13:32;12.90;99.90
43099;DHT22;28715;51.988;6.020;2022-10-01T04:15:59;12.90;99.90
43099;DHT22;28715;51.988;6.020;2022-10-01T04:18:25;12.90;99.90
43099;DHT22;28715;51.988;6.020;2022-10-01T04:20:50;13.00;99.90
43099;DHT22;28715;51.988;6.020;2022-10-01T04:23:16;13.00;99.90
43099;DHT22;28715;51.988;6.020;2022-10-01T04:25:41;13.00;99.90
43099;DHT22;28715;51.988;6.020;2022-10-01T04:28:10;13.10;99.90
43099;DHT22;28715;51.988;6.020;2022-10-01T04:30:39;13.10;99.90
43099;DHT22;28715;51.988;6.020;2022-10-01T04:33:06;13.10;99.90
43099;DHT22;28715;51.988;6.020;2022-10-01T04:35:32;13.20;99.90
43099;DHT22;28715;51.988;6.020;2022-10-01T04:38:05;13.20;99.90
43099;DHT22;28715;51.988;6.020;2022-10-01T04:40:32;13.30;99.90
43099;DHT22;28715;51.988;6.020;2022-10-01T04:42:59;13.20;99.90
43099;DHT22;28715;51.988;6.020;2022-10-01T04:45:25;13.30;99.90
43099;DHT22;28715;51.988;6.020;2022-10-01T04:47:52;13.30;99.90
43099;DHT22;28715;51.988;6.020;2022-10-01T04:50:19;13.30;99.90
43099;DHT22;28715;51.988;6.020;2022-10-01T04:52:46;13.30;99.90
43099;DHT22;28715;51.988;6.020;2022-10-01T04:55:12;13.30;99.90
43099;DHT22;28715;51.988;6.020;2022-10-01T04:57:38;13.30;99.90
43099;DHT22;28715;51.988;6.020;2022-10-01T05:00:10;13.30;99.90
43099;DHT22;28715;51.988;6.020;2022-10-01T05:02:36;13.30;99.90
43099;DHT22;28715;51.988;6.020;2022-10-01T05:05:06;13.30;99.90
43099;DHT22;28715;51.988;6.020;2022-10-01T05:07:33;13.40;99.90
43099;DHT22;28715;51.988;6.020;2022-10-01T05:10:00;13.40;99.90
43099;DHT22;28715;51.988;6.020;2022-10-01T05:12:27;13.40;99.90
43099;DHT22;28715;51.988;6.020;2022-10-01T05:14:53;13.40;99.90
43099;DHT22;28715;51.988;6.020;2022-10-01T05:17:20;13.40;99.90
43099;DHT22;28715;51.988;6.020;2022-10-01T05:19:46;13.50;99.90
43099;DHT22;28715;51.988;6.020;2022-10-01T05:22:12;13.50;99.90
43099;DHT22;28715;51.988;6.020;2022-10-01T05:24:38;13.50;99.90
43099;DHT22;28715;51.988;6.020;2022-10-01T05:27:04;13.60;99.90
43099;DHT22;28715;51.988;6.020;2022-10-01T05:29:30;13.60;99.90
43099;DHT22;28715;51.988;6.020;2022-10-01T05:31:57;13.60;99.90
43099;DHT22;28715;51.988;6.020;2022-10-01T05:34:22;13.60;99.90
43099;DHT22;28715;51.988;6.020;2022-10-01T05:36:48;13.70;99.90
43099;DHT22;28715;51.988;6.020;2022-10-01T05:39:14;13.70;99.90
43099;DHT22;28715;51.988;6.020;2022-10-01T05:41:39;13.70;99.90
43099;DHT22;28715;51.988;6.020;2022-10-01T05:44:05;13.80;99.90
43099;DHT22;28715;51.988;6.020;2022-10-01T05:46:32;13.80;99.90
43099;DHT22;28715;51.988;6.020;2022-10-01T05:48:57;13.80;99.90
43099;DHT22;28715;51.988;6.020;2022-10-01T05:51:23;13.80;99.90
43099;DHT22;28715;51.988;6.020;2022-10-01T05:53:52;13.80;99.90
43099;DHT22;28715;51.988;6.020;2022-10-01T05:56:17;13.80;99.90
43099;DHT22;28715;51.988;6.020;2022-10-01T05:58:43;13.80;99.90
43099;DHT22;28715;51.988;6.020;2022-10-01T06:01:11;13.80;99.90
43099;DHT22;28715;51.988;6.020;2022-10-01T06:03:37;13.80;99.90
43099;DHT22;28715;51.988;6.020;2022-10-01T06:06:03;13.80;99.90
43099;DHT22;28715;51.988;6.020;2022-10-01T06:08:30;13.80;99.90
43099;DHT22;28715;51.988;6.020;2022-10-01T06:11:00;13.90;99.90
43099;DHT22;28715;51.988;6.020;2022-10-01T06:13:26;13.90;99.90
43099;DHT22;28715;51.988;6.020;2022-10-01T06:15:53;13.90;99.90
43099;DHT22;28715;51.988;6.020;2022-10-01T06:18:18;14.00;99.90
43099;DHT22;28715;51.988;6.020;2022-10-01T06:20:44;14.00;99.90
43099;DHT22;28715;51.988;6.020;2022-10-01T06:23:11;14.00;99.90
43099;DHT22;28715;51.988;6.020;2022-10-01T06:25:39;14.00;99.90
43099;DHT22;28715;51.988;6.020;2022-10-01T06:28:06;14.10;99.90
43099;DHT22;28715;51.988;6.020;2022-10-01T06:30:34;14.10;99.90
43099;DHT22;28715;51.988;6.020;2022-10-01T06:33:10;14.20;99.90
43099;DHT22;28715;51.988;6.020;2022-10-01T06:35:47;14.20;99.90
43099;DHT22;28715;51.988;6.020;2022-10-01T06:38:13;14.30;99.90
43099;DHT22;28715;51.988;6.020;2022-10-01T06:40:40;14.30;99.90
43099;DHT22;28715;51.988;6.020;2022-10-01T06:43:06;14.40;99.90
43099;DHT22;28715;51.988;6.020;2022-10-01T06:45:36;14.40;99.90
43099;DHT22;28715;51.988;6.020;2022-10-01T06:48:09;14.40;99.90
43099;DHT22;28715;51.988;6.020;2022-10-01T06:50:39;14.40;99.90
43099;DHT22;28715;51.988;6.020;2022-10-01T06:53:05;14.50;99.90
43099;DHT22;28715;51.988;6.020;2022-10-01T06:55:33;14.50;99.90
43099;DHT22;28715;51.988;6.020;2022-10-01T06:58:04;14.50;99.90
43099;DHT22;28715;51.988;6.020;2022-10-01T07:00:31;14.60;99.90
43099;DHT22;28715;51.988;6.020;2022-10-01T07:02:57;14.60;99.90
43099;DHT22;28715;51.988;6.020;2022-10-01T07:05:24;14.60;99.90
43099;DHT22;28715;51.988;6.020;2022-10-01T07:07:50;14.60;99.90
43099;DHT22;28715;51.988;6.020;2022-10-01T07:10:17;14.70;99.90
43099;DHT22;28715;51.988;6.020;2022-10-01T07:12:46;14.70;99.90
43099;DHT22;28715;51.988;6.020;2022-10-01T07:15:17;14.70;99.90
43099;DHT22;28715;51.988;6.020;2022-10-01T07:17:45;14.80;99.90
43099;DHT22;28715;51.988;6.020;2022-10-01T07:20:11;14.80;99.90
43099;DHT22;28715;51.988;6.020;2022-10-01T07:22:39;14.80;99.90
43099;DHT22;28715;51.988;6.020;2022-10-01T07:25:05;14.90;99.90
43099;DHT22;28715;51.988;6.020;2022-10-01T07:27:30;14.90;99.90
43099;DHT22;28715;51.988;6.020;2022-10-01T07:29:56;14.90;99.90
43099;DHT22;28715;51.988;6.020;2022-10-01T07:32:24;15.00;99.90
43099;DHT22;28715;51.988;6.020;2022-10-01T07:34:49;15.10;99.90
43099;DHT22;28715;51.988;6.020;2022-10-01T07:37:15;15.20;99.90
43099;DHT22;28715;51.988;6.020;2022-10-01T07:39:41;15.30;99.90
43099;DHT22;28715;51.988;6.020;2022-10-01T07:42:07;15.40;99.90
43099;DHT22;28715;51.988;6.020;2022-10-01T07:44:33;15.50;99.90
43099;DHT22;28715;51.988;6.020;2022-10-01T07:46:59;15.60;99.90
43099;DHT22;28715;51.988;6.020;2022-10-01T07:49:24;15.60;99.90
43099;DHT22;28715;51.988;6.020;2022-10-01T07:51:51;15.60;99.90
43099;DHT22;28715;51.988;6.020;2022-10-01T07:54:17;15.60;99.90
43099;DHT22;28715;51.988;6.020;2022-10-01T07:56:44;15.60;99.90
43099;DHT22;28715;51.988;6.020;2022-10-01T07:59:10;15.60;99.90
43099;DHT22;28715;51.988;6.020;2022-10-01T08:01:36;15.60;99.90
43099;DHT22;28715;51.988;6.020;2022-10-01T08:04:04;15.60;99.90
43099;DHT22;28715;51.988;6.020;2022-10-01T08:06:50;15.70;99.90
43099;DHT22;28715;51.988;6.020;2022-10-01T08:09:16;15.80;99.90
43099;DHT22;28715;51.988;6.020;2022-10-01T08:11:41;15.80;99.90
43099;DHT22;28715;51.988;6.020;2022-10-01T08:14:07;15.90;99.90
43099;DHT22;28715;51.988;6.020;2022-10-01T08:16:33;15.90;99.90
43099;DHT22;28715;51.988;6.020;2022-10-01T08:18:59;16.00;99.90
43099;DHT22;28715;51.988;6.020;2022-10-01T08:21:27;16.00;99.90
43099;DHT22;28715;51.988;6.020;2022-10-01T08:23:52;16.00;99.90
43099;DHT22;28715;51.988;6.020;2022-10-01T08:26:18;16.10;99.90
43099;DHT22;28715;51.988;6.020;2022-10-01T08:28:43;16.20;99.90
43099;DHT22;28715;51.988;6.020;2022-10-01T08:31:09;16.20;99.90
43099;DHT22;28715;51.988;6.020;2022-10-01T08:33:36;16.30;99.90
43099;DHT22;28715;51.988;6.020;2022-10-01T08:36:05;16.30;99.90
43099;DHT22;28715;51.988;6.020;2022-10-01T08:38:35;16.30;99.90
43099;DHT22;28715;51.988;6.020;2022-10-01T08:41:11;16.30;99.90
43099;DHT22;28715;51.988;6.020;2022-10-01T08:43:43;16.40;99.90
43099;DHT22;28715;51.988;6.020;2022-10-01T08:46:15;16.50;99.90
43099;DHT22;28715;51.988;6.020;2022-10-01T08:51:45;16.50;99.90
43099;DHT22;28715;51.988;6.020;2022-10-01T08:54:35;16.50;99.90
43099;DHT22;28715;51.988;6.020;2022-10-01T08:57:10;16.50;99.90
43099;DHT22;28715;51.988;6.020;2022-10-01T08:59:43;16.50;99.90
43099;DHT22;28715;51.988;6.020;2022-10-01T09:02:24;16.50;99.90
43099;DHT22;28715;51.988;6.020;2022-10-01T09:04:53;16.70;99.90
43099;DHT22;28715;51.988;6.020;2022-10-01T09:10:25;16.80;99.90
43099;DHT22;28715;51.988;6.020;2022-10-01T09:13:04;16.70;99.90
43099;DHT22;28715;51.988;6.020;2022-10-01T09:15:42;16.60;99.90
43099;DHT22;28715;51.988;6.020;2022-10-01T09:18:20;16.50;99.90
43099;DHT22;28715;51.988;6.020;2022-10-01T09:20:57;16.50;99.90
43099;DHT22;28715;51.988;6.020;2022-10-01T09:25:51;16.30;99.90
43099;DHT22;28715;51.988;6.020;2022-10-01T09:28:22;16.30;99.90
43099;DHT22;28715;51.988;6.020;2022-10-01T09:33:30;16.30;99.90
43099;DHT22;28715;51.988;6.020;2022-10-01T09:36:24;16.40;99.90
43099;DHT22;28715;51.988;6.020;2022-10-01T09:39:19;16.40;99.90
43099;DHT22;28715;51.988;6.020;2022-10-01T09:41:47;16.40;99.90
43099;DHT22;28715;51.988;6.020;2022-10-01T09:44:20;16.40;99.90
43099;DHT22;28715;51.988;6.020;2022-10-01T09:46:47;16.40;99.90
43099;DHT22;28715;51.988;6.020;2022-10-01T09:52:02;16.30;99.90
43099;DHT22;28715;51.988;6.020;2022-10-01T09:54:35;16.30;99.90
43099;DHT22;28715;51.988;6.020;2022-10-01T09:57:08;16.30;99.90
43099;DHT22;28715;51.988;6.020;2022-10-01T10:00:03;16.30;99.90
43099;DHT22;28715;51.988;6.020;2022-10-01T10:02:36;16.40;99.90
43099;DHT22;28715;51.988;6.020;2022-10-01T10:05:06;16.40;99.90
43099;DHT22;28715;51.988;6.020;2022-10-01T10:07:32;16.50;99.90
43099;DHT22;28715;51.988;6.020;2022-10-01T10:10:18;16.70;99.90
43099;DHT22;28715;51.988;6.020;2022-10-01T10:12:45;17.00;99.90
43099;DHT22;28715;51.988;6.020;2022-10-01T10:15:16;17.40;99.90
43099;DHT22;28715;51.988;6.020;2022-10-01T10:17:43;17.70;99.90
43099;DHT22;28715;51.988;6.020;2022-10-01T10:20:30;17.90;99.90
43099;DHT22;28715;51.988;6.020;2022-10-01T10:23:14;18.30;99.90
43099;DHT22;28715;51.988;6.020;2022-10-01T10:25:40;18.70;99.90
43099;DHT22;28715;51.988;6.020;2022-10-01T10:28:18;19.00;99.80
43099;DHT22;28715;51.988;6.020;2022-10-01T10:30:44;19.30;99.20
43099;DHT22;28715;51.988;6.020;2022-10-01T10:33:11;19.60;98.40
43099;DHT22;28715;51.988;6.020;2022-10-01T10:35:38;19.80;97.70
43099;DHT22;28715;51.988;6.020;2022-10-01T10:38:04;19.70;97.20
43099;DHT22;28715;51.988;6.020;2022-10-01T10:40:42;19.70;97.10
43099;DHT22;28715;51.988;6.020;2022-10-01T10:43:17;19.60;97.30
43099;DHT22;28715;51.988;6.020;2022-10-01T10:45:43;19.50;97.20
43099;DHT22;28715;51.988;6.020;2022-10-01T10:48:14;19.50;97.40
43099;DHT22;28715;51.988;6.020;2022-10-01T10:50:43;19.50;97.30
43099;DHT22;28715;51.988;6.020;2022-10-01T10:53:21;19.40;96.70
43099;DHT22;28715;51.988;6.020;2022-10-01T10:56:04;19.10;96.70
43099;DHT22;28715;51.988;6.020;2022-10-01T10:58:35;18.90;97.30
43099;DHT22;28715;51.988;6.020;2022-10-01T11:01:21;18.70;97.80
43099;DHT22;28715;51.988;6.020;2022-10-01T11:03:53;18.60;98.10
43099;DHT22;28715;51.988;6.020;2022-10-01T11:06:20;18.50;98.10
43099;DHT22;28715;51.988;6.020;2022-10-01T11:08:48;18.30;97.70
43099;DHT22;28715;51.988;6.020;2022-10-01T11:14:37;17.90;97.30
43099;DHT22;28715;51.988;6.020;2022-10-01T11:23:16;17.90;98.40
43099;DHT22;28715;51.988;6.020;2022-10-01T11:26:05;18.00;98.00
43099;DHT22;28715;51.988;6.020;2022-10-01T11:34:24;18.00;98.50
43099;DHT22;28715;51.988;6.020;2022-10-01T11:39:51;18.60;97.00
43099;DHT22;28715;51.988;6.020;2022-10-01T11:42:19;18.90;96.90
43099;DHT22;28715;51.988;6.020;2022-10-01T11:45:26;19.10;95.80
43099;DHT22;28715;51.988;6.020;2022-10-01T11:48:00;19.20;95.60
43099;DHT22;28715;51.988;6.020;2022-10-01T11:50:32;19.40;95.70
43099;DHT22;28715;51.988;6.020;2022-10-01T11:53:02;19.60;95.10
43099;DHT22;28715;51.988;6.020;2022-10-01T11:55:57;19.70;94.70
43099;DHT22;28715;51.988;6.020;2022-10-01T12:04:41;19.60;93.10
43099;DHT22;28715;51.988;6.020;2022-10-01T12:10:30;19.60;90.90
43099;DHT22;28715;51.988;6.020;2022-10-01T12:16:08;19.50;91.70
43099;DHT22;28715;51.988;6.020;2022-10-01T12:18:46;19.50;92.10
43099;DHT22;28715;51.988;6.020;2022-10-01T12:21:37;19.60;92.10
43099;DHT22;28715;51.988;6.020;2022-10-01T12:24:28;19.70;91.10
43099;DHT22;28715;51.988;6.020;2022-10-01T12:29:39;19.90;91.60
43099;DHT22;28715;51.988;6.020;2022-10-01T12:33:06;20.00;91.30
43099;DHT22;28715;51.988;6.020;2022-10-01T12:55:47;17.70;95.90
43099;DHT22;28715;51.988;6.020;2022-10-01T13:01:04;17.80;97.00
43099;DHT22;28715;51.988;6.020;2022-10-01T13:09:37;18.40;96.60
43099;DHT22;28715;51.988;6.020;2022-10-01T13:14:47;18.90;96.50
43099;DHT22;28715;51.988;6.020;2022-10-01T13:17:32;18.90;96.20
43099;DHT22;28715;51.988;6.020;2022-10-01T13:20:19;18.90;95.50
43099;DHT22;28715;51.988;6.020;2022-10-01T13:22:49;18.90;96.40
43099;DHT22;28715;51.988;6.020;2022-10-01T13:25:24;18.90;95.40
43099;DHT22;28715;51.988;6.020;2022-10-01T13:28:19;18.90;94.70
43099;DHT22;28715;51.988;6.020;2022-10-01T13:30:59;18.80;94.30
43099;DHT22;28715;51.988;6.020;2022-10-01T13:33:30;18.60;94.20
43099;DHT22;28715;51.988;6.020;2022-10-01T13:36:00;18.50;94.80
43099;DHT22;28715;51.988;6.020;2022-10-01T13:38:44;18.50;94.70
43099;DHT22;28715;51.988;6.020;2022-10-01T13:41:31;18.60;93.30
43099;DHT22;28715;51.988;6.020;2022-10-01T13:46:35;18.50;93.20
43099;DHT22;28715;51.988;6.020;2022-10-01T13:49:27;18.50;93.80
43099;DHT22;28715;51.988;6.020;2022-10-01T13:51:54;18.70;93.90
43099;DHT22;28715;51.988;6.020;2022-10-01T13:54:27;19.00;93.20
43099;DHT22;28715;51.988;6.020;2022-10-01T13:56:54;19.00;92.60
43099;DHT22;28715;51.988;6.020;2022-10-01T13:59:33;19.10;92.70
43099;DHT22;28715;51.988;6.020;2022-10-01T14:02:00;19.10;91.90
43099;DHT22;28715;51.988;6.020;2022-10-01T14:04:41;19.20;92.30
43099;DHT22;28715;51.988;6.020;2022-10-01T14:07:31;19.40;92.40
43099;DHT22;28715;51.988;6.020;2022-10-01T14:10:17;19.50;92.00
43099;DHT22;28715;51.988;6.020;2022-10-01T14:12:54;19.60;91.70
43099;DHT22;28715;51.988;6.020;2022-10-01T14:15:51;19.70;91.50
43099;DHT22;28715;51.988;6.020;2022-10-01T14:18:39;19.80;91.70
43099;DHT22;28715;51.988;6.020;2022-10-01T14:26:51;19.90;91.60
43099;DHT22;28715;51.988;6.020;2022-10-01T14:29:36;20.10;91.20
43099;DHT22;28715;51.988;6.020;2022-10-01T14:35:39;20.20;88.70
43099;DHT22;28715;51.988;6.020;2022-10-01T14:38:12;20.00;88.00
43099;DHT22;28715;51.988;6.020;2022-10-01T14:40:42;19.90;89.60
43099;DHT22;28715;51.988;6.020;2022-10-01T14:46:05;19.80;89.60
43099;DHT22;28715;51.988;6.020;2022-10-01T14:48:33;19.70;90.30
43099;DHT22;28715;51.988;6.020;2022-10-01T14:51:02;19.70;90.40
43099;DHT22;28715;51.988;6.020;2022-10-01T14:53:32;19.70;90.10
43099;DHT22;28715;51.988;6.020;2022-10-01T14:56:02;19.60;88.40
43099;DHT22;28715;51.988;6.020;2022-10-01T14:58:38;19.60;89.00
43099;DHT22;28715;51.988;6.020;2022-10-01T15:01:05;19.40;89.20
43099;DHT22;28715;51.988;6.020;2022-10-01T15:03:39;19.30;89.70
43099;DHT22;28715;51.988;6.020;2022-10-01T15:06:18;19.40;89.80
43099;DHT22;28715;51.988;6.020;2022-10-01T15:09:01;19.40;88.20
43099;DHT22;28715;51.988;6.020;2022-10-01T15:11:41;19.50;89.00
43099;DHT22;28715;51.988;6.020;2022-10-01T15:14:09;19.50;88.50
43099;DHT22;28715;51.988;6.020;2022-10-01T15:16:44;19.50;87.20
43099;DHT22;28715;51.988;6.020;2022-10-01T15:19:13;19.50;88.80
43099;DHT22;28715;51.988;6.020;2022-10-01T15:21:50;19.50;88.30
43099;DHT22;28715;51.988;6.020;2022-10-01T15:24:28;19.60;87.60
43099;DHT22;28715;51.988;6.020;2022-10-01T15:26:56;19.60;86.30
43099;DHT22;28715;51.988;6.020;2022-10-01T15:29:22;19.60;87.10
43099;DHT22;28715;51.988;6.020;2022-10-01T15:31:50;19.60;87.90
43099;DHT22;28715;51.988;6.020;2022-10-01T15:34:18;19.60;87.60
43099;DHT22;28715;51.988;6.020;2022-10-01T15:36:46;19.60;87.30
43099;DHT22;28715;51.988;6.020;2022-10-01T15:41:54;19.50;87.80
43099;DHT22;28715;51.988;6.020;2022-10-01T15:47:22;19.30;88.40
43099;DHT22;28715;51.988;6.020;2022-10-01T15:50:05;19.30;89.60
43099;DHT22;28715;51.988;6.020;2022-10-01T15:52:54;19.20;89.50
43099;DHT22;28715;51.988;6.020;2022-10-01T15:55:46;19.10;89.70
43099;DHT22;28715;51.988;6.020;2022-10-01T15:58:20;19.00;89.60
43099;DHT22;28715;51.988;6.020;2022-10-01T16:00:57;18.90;89.60
43099;DHT22;28715;51.988;6.020;2022-10-01T16:03:50;18.80;90.20
43099;DHT22;28715;51.988;6.020;2022-10-01T16:06:23;18.70;90.30
43099;DHT22;28715;51.988;6.020;2022-10-01T16:09:17;18.70;90.30
43099;DHT22;28715;51.988;6.020;2022-10-01T16:11:55;18.70;90.80
43099;DHT22;28715;51.988;6.020;2022-10-01T16:16:46;18.70;90.50
43099;DHT22;28715;51.988;6.020;2022-10-01T16:24:46;18.50;90.70
43099;DHT22;28715;51.988;6.020;2022-10-01T16:27:22;18.50;90.90
43099;DHT22;28715;51.988;6.020;2022-10-01T16:29:53;18.50;91.40
43099;DHT22;28715;51.988;6.020;2022-10-01T16:32:19;18.50;91.30
43099;DHT22;28715;51.988;6.020;2022-10-01T16:34:46;18.40;91.10
43099;DHT22;28715;51.988;6.020;2022-10-01T16:37:12;18.40;91.00
43099;DHT22;28715;51.988;6.020;2022-10-01T16:39:38;18.30;91.30
43099;DHT22;28715;51.988;6.020;2022-10-01T16:42:03;18.20;91.40
43099;DHT22;28715;51.988;6.020;2022-10-01T16:44:30;18.20;91.50
43099;DHT22;28715;51.988;6.020;2022-10-01T16:46:56;18.10;91.50
43099;DHT22;28715;51.988;6.020;2022-10-01T16:49:21;18.00;91.60
43099;DHT22;28715;51.988;6.020;2022-10-01T16:51:52;18.00;91.70
43099;DHT22;28715;51.988;6.020;2022-10-01T16:54:25;17.90;92.00
43099;DHT22;28715;51.988;6.020;2022-10-01T16:56:52;17.90;92.20
43099;DHT22;28715;51.988;6.020;2022-10-01T16:59:20;17.80;92.20
43099;DHT22;28715;51.988;6.020;2022-10-01T17:01:48;17.80;92.40
43099;DHT22;28715;51.988;6.020;2022-10-01T17:04:15;17.80;92.50
43099;DHT22;28715;51.988;6.020;2022-10-01T17:06:41;17.80;92.40
43099;DHT22;28715;51.988;6.020;2022-10-01T17:09:07;17.70;92.30
43099;DHT22;28715;51.988;6.020;2022-10-01T17:11:33;17.60;92.50
43099;DHT22;28715;51.988;6.020;2022-10-01T17:13:59;17.60;92.50
43099;DHT22;28715;51.988;6.020;2022-10-01T17:16:27;17.50;92.40
43099;DHT22;28715;51.988;6.020;2022-10-01T17:18:53;17.50;92.60
43099;DHT22;28715;51.988;6.020;2022-10-01T17:21:19;17.50;92.60
43099;DHT22;28715;51.988;6.020;2022-10-01T17:23:44;17.40;92.70
43099;DHT22;28715;51.988;6.020;2022-10-01T17:26:10;17.40;92.70
43099;DHT22;28715;51.988;6.020;2022-10-01T17:28:35;17.40;92.80
43099;DHT22;28715;51.988;6.020;2022-10-01T17:31:05;17.40;92.90
43099;DHT22;28715;51.988;6.020;2022-10-01T17:33:31;17.30;92.80
43099;DHT22;28715;51.988;6.020;2022-10-01T17:35:57;17.20;92.80
43099;DHT22;28715;51.988;6.020;2022-10-01T17:38:23;17.20;92.80
43099;DHT22;28715;51.988;6.020;2022-10-01T17:40:49;17.20;92.70
43099;DHT22;28715;51.988;6.020;2022-10-01T17:43:16;17.10;92.80
43099;DHT22;28715;51.988;6.020;2022-10-01T17:45:43;17.10;92.80
43099;DHT22;28715;51.988;6.020;2022-10-01T17:48:12;17.20;92.90
43099;DHT22;28715;51.988;6.020;2022-10-01T17:50:38;17.20;93.00